Time;durP1;ratioP1;P1;durP2;ratioP2;P2;SDS_P1;SDS_P2;PMS_P1;PMS_P2;Temp;Humidity;BMP_temperature;BMP_pressure;BME280_temperature;BME280_humidity;BME280_pressure;Samples;Min_cycle;Max_cycle;Signal;HPM_P1;HPM_P2
2022/09/02 00:02:25;;;;;;;2.63;0.90;;;11.60;99.90;;;;;;4389788;28;656766;-68
2022/09/02 00:05:14;;;;;;;1.37;0.83;;;11.60;99.90;;;;;;4406748;28;657270;-66
2022/09/02 00:08:01;;;;;;;2.23;0.93;;;11.70;99.90;;;;;;4388065;28;656995;-66
2022/09/02 00:10:49;;;;;;;3.63;1.00;;;11.60;99.90;;;;;;4413638;28;657812;-66
2022/09/02 00:13:36;;;;;;;3.33;0.80;;;11.70;99.90;;;;;;4390471;28;656850;-66
2022/09/02 00:16:23;;;;;;;2.77;0.80;;;11.60;99.90;;;;;;4412195;28;657368;-66
2022/09/02 00:19:10;;;;;;;1.50;0.73;;;11.60;99.90;;;;;;4388694;28;656899;-67
2022/09/02 00:21:59;;;;;;;2.30;1.00;;;11.50;99.90;;;;;;4409005;28;657294;-66
2022/09/02 00:24:46;;;;;;;2.10;1.20;;;11.50;99.90;;;;;;4390474;28;656696;-66
2022/09/02 00:27:34;;;;;;;1.73;0.80;;;11.50;99.90;;;;;;4407728;28;657684;-66
2022/09/02 00:30:21;;;;;;;2.43;1.03;;;11.60;99.90;;;;;;4391330;28;656375;-67
2022/09/02 00:33:08;;;;;;;2.27;0.80;;;11.60;99.90;;;;;;4409288;28;657709;-66
2022/09/02 00:35:55;;;;;;;1.73;0.88;;;11.60;99.90;;;;;;4395612;28;656768;-68
2022/09/02 00:38:44;;;;;;;3.57;1.07;;;11.60;99.90;;;;;;4408812;28;657209;-67
2022/09/02 00:41:31;;;;;;;1.53;1.00;;;11.60;99.90;;;;;;4390161;28;657009;-66
2022/09/02 00:44:19;;;;;;;3.17;1.20;;;11.60;99.90;;;;;;4407896;28;657637;-66
2022/09/02 00:47:07;;;;;;;2.70;1.17;;;11.60;99.90;;;;;;4385979;28;656684;-66
2022/09/02 00:49:54;;;;;;;1.37;0.80;;;11.50;99.90;;;;;;4412539;28;656813;-65
2022/09/02 00:52:43;;;;;;;2.17;1.00;;;11.50;99.90;;;;;;4387455;28;656630;-64
2022/09/02 00:55:33;;;;;;;2.40;1.10;;;11.50;99.90;;;;;;4399756;28;656771;-66
2022/09/02 00:58:22;;;;;;;0.80;0.80;;;11.50;99.90;;;;;;4393847;28;656641;-66
2022/09/02 01:01:09;;;;;;;3.15;0.82;;;11.30;99.90;;;;;;4402920;28;656818;-65
2022/09/02 01:03:56;;;;;;;2.40;1.00;;;11.20;99.90;;;;;;4380087;28;656593;-65
2022/09/02 01:06:43;;;;;;;2.03;1.00;;;11.20;99.90;;;;;;4409280;28;657636;-64
2022/09/02 01:09:32;;;;;;;1.97;0.80;;;11.10;99.90;;;;;;4388268;28;656414;-64
2022/09/02 01:12:20;;;;;;;2.10;1.13;;;11.00;99.90;;;;;;4406503;28;656250;-64
2022/09/02 01:15:09;;;;;;;1.80;1.00;;;10.80;99.90;;;;;;4384298;28;657583;-65
2022/09/02 01:17:56;;;;;;;6.23;1.20;;;10.50;99.90;;;;;;4389376;28;656662;-65
2022/09/02 01:20:43;;;;;;;2.13;1.10;;;10.50;99.90;;;;;;4408876;28;657101;-65
2022/09/02 01:23:32;;;;;;;1.77;1.00;;;10.40;99.90;;;;;;4387501;28;656553;-66
2022/09/02 01:26:19;;;;;;;3.37;1.20;;;10.30;99.90;;;;;;4409594;28;655966;-65
2022/09/02 01:29:06;;;;;;;2.17;1.07;;;10.20;99.90;;;;;;4389488;28;657065;-65
2022/09/02 01:31:53;;;;;;;4.03;1.10;;;10.20;99.90;;;;;;4407553;28;657597;-64
2022/09/02 01:34:40;;;;;;;5.23;1.30;;;10.10;99.90;;;;;;4388743;28;656952;-66
2022/09/02 01:37:27;;;;;;;2.60;1.10;;;10.00;99.90;;;;;;4411176;28;656124;-64
2022/09/02 01:40:16;;;;;;;4.27;1.00;;;9.90;99.90;;;;;;4405828;28;656771;-65
2022/09/02 01:43:06;;;;;;;1.70;1.10;;;9.90;99.90;;;;;;4383349;28;655783;-65
2022/09/02 01:45:54;;;;;;;2.00;1.00;;;9.70;99.90;;;;;;4384313;28;656370;-65
2022/09/02 01:48:41;;;;;;;3.13;0.90;;;9.50;99.90;;;;;;4389708;28;655797;-65
2022/09/02 01:51:28;;;;;;;2.30;1.17;;;9.40;99.90;;;;;;4407580;28;656283;-65
2022/09/02 01:54:16;;;;;;;2.90;1.13;;;9.20;99.90;;;;;;4388952;28;655882;-66
2022/09/02 01:57:04;;;;;;;3.63;1.30;;;9.10;99.90;;;;;;4408812;28;656092;-65
2022/09/02 01:59:51;;;;;;;2.23;1.00;;;9.20;99.90;;;;;;4388948;28;655898;-64
2022/09/02 02:02:39;;;;;;;1.73;0.93;;;9.10;99.90;;;;;;4408512;28;656892;-65
2022/09/02 02:05:26;;;;;;;1.30;1.00;;;9.00;99.90;;;;;;4387487;28;656241;-65
2022/09/02 02:08:13;;;;;;;1.80;1.00;;;8.90;99.90;;;;;;4411645;28;655900;-64
2022/09/02 02:11:00;;;;;;;7.27;0.90;;;8.80;99.90;;;;;;4389778;28;655477;-66
2022/09/02 02:13:49;;;;;;;4.00;1.40;;;8.80;99.90;;;;;;4404010;28;655506;-64
2022/09/02 02:16:36;;;;;;;2.57;0.90;;;8.90;99.90;;;;;;4391461;28;656065;-65
2022/09/02 02:19:23;;;;;;;6.15;1.38;;;8.90;99.90;;;;;;4409278;28;656720;-65
2022/09/02 02:22:10;;;;;;;5.13;1.17;;;8.80;99.90;;;;;;4394862;28;655335;-65
2022/09/02 02:24:57;;;;;;;4.30;1.00;;;8.80;99.90;;;;;;4413956;28;657096;-64
2022/09/02 02:27:45;;;;;;;1.30;1.00;;;8.70;99.90;;;;;;4408499;28;655857;-66
2022/09/02 02:30:34;;;;;;;3.90;1.20;;;8.90;99.90;;;;;;4415179;28;656017;-65
2022/09/02 02:33:21;;;;;;;4.17;1.20;;;9.00;99.90;;;;;;4389844;28;655973;-65
2022/09/02 02:36:09;;;;;;;3.73;1.10;;;9.00;99.90;;;;;;4410229;28;656583;-65
2022/09/02 02:38:56;;;;;;;2.27;1.30;;;9.10;99.90;;;;;;4392056;28;655637;-65
2022/09/02 02:41:43;;;;;;;1.60;1.07;;;9.10;99.90;;;;;;4414536;28;655797;-65
2022/09/02 02:44:30;;;;;;;4.57;1.17;;;9.00;99.90;;;;;;4394947;28;655695;-66
2022/09/02 02:47:19;;;;;;;4.40;1.30;;;9.00;99.90;;;;;;4414285;28;655697;-66
2022/09/02 02:50:07;;;;;;;2.00;1.23;;;9.00;99.90;;;;;;4391682;28;655620;-65
2022/09/02 02:52:55;;;;;;;4.43;1.17;;;9.00;99.90;;;;;;4412183;28;655693;-65
2022/09/02 02:55:42;;;;;;;2.67;1.30;;;9.00;99.90;;;;;;4390064;28;656313;-65
2022/09/02 02:58:29;;;;;;;2.87;1.40;;;9.10;99.90;;;;;;4410135;28;656280;-65
2022/09/02 03:01:16;;;;;;;5.90;2.00;;;9.00;99.90;;;;;;4388571;28;656373;-66
2022/09/02 03:04:05;;;;;;;4.50;1.50;;;9.10;99.90;;;;;;4407011;28;655725;-65
2022/09/02 03:06:52;;;;;;;5.17;1.30;;;9.10;99.90;;;;;;4393597;28;656002;-65
2022/09/02 03:09:39;;;;;;;2.92;1.77;;;9.10;99.90;;;;;;4410469;28;656557;-65
2022/09/02 03:12:27;;;;;;;2.50;1.53;;;9.10;99.90;;;;;;4389598;28;656007;-65
2022/09/02 03:15:15;;;;;;;2.97;1.50;;;9.00;99.90;;;;;;4408594;28;656602;-64
2022/09/02 03:18:03;;;;;;;5.77;1.70;;;9.00;99.90;;;;;;4384846;28;656736;-65
2022/09/02 03:20:51;;;;;;;2.60;1.30;;;9.00;99.90;;;;;;4404331;28;655573;-66
2022/09/02 03:23:39;;;;;;;2.73;1.50;;;8.90;99.90;;;;;;4409654;28;655355;-66
2022/09/02 03:26:26;;;;;;;4.20;1.63;;;8.90;99.90;;;;;;4390539;28;655396;-65
2022/09/02 03:29:13;;;;;;;3.60;1.23;;;8.90;99.90;;;;;;4416042;28;656710;-65
2022/09/02 03:32:00;;;;;;;2.07;1.37;;;9.00;99.90;;;;;;4397211;28;655708;-66
2022/09/02 03:34:47;;;;;;;2.10;1.30;;;9.00;99.90;;;;;;4416258;28;656726;-65
2022/09/02 03:37:36;;;;;;;1.77;1.17;;;9.10;99.90;;;;;;4413601;28;655992;-65
2022/09/02 03:40:24;;;;;;;3.37;1.30;;;9.20;99.90;;;;;;4388493;28;656872;-65
2022/09/02 03:43:11;;;;;;;2.83;1.30;;;9.20;99.90;;;;;;4386736;28;655681;-65
2022/09/02 03:45:59;;;;;;;3.73;1.40;;;9.30;99.90;;;;;;4411742;28;657148;-65
2022/09/02 03:48:46;;;;;;;8.73;1.40;;;9.40;99.90;;;;;;4388951;28;656034;-64
2022/09/02 03:51:33;;;;;;;4.03;1.43;;;9.40;99.90;;;;;;4410259;28;656255;-65
2022/09/02 03:54:22;;;;;;;5.03;1.37;;;9.40;99.90;;;;;;4389428;28;655645;-65
2022/09/02 03:57:09;;;;;;;3.37;1.37;;;9.40;99.90;;;;;;4412869;28;655488;-65
2022/09/02 03:59:56;;;;;;;3.17;1.20;;;9.50;99.90;;;;;;4388462;28;655704;-64
2022/09/02 04:02:43;;;;;;;3.23;1.40;;;9.50;99.90;;;;;;4412158;28;656308;-65
2022/09/02 04:05:30;;;;;;;4.60;1.40;;;9.50;99.90;;;;;;4390025;28;655430;-65
2022/09/02 04:08:18;;;;;;;4.53;1.40;;;9.40;99.90;;;;;;4410240;28;656123;-66
2022/09/02 04:11:08;;;;;;;2.20;1.30;;;9.40;99.90;;;;;;4402598;28;655564;-67
2022/09/02 04:13:55;;;;;;;6.07;1.40;;;9.50;99.90;;;;;;4394755;28;655865;-67
2022/09/02 04:16:42;;;;;;;4.70;1.40;;;9.50;99.90;;;;;;4413315;28;654769;-66
2022/09/02 04:19:29;;;;;;;3.20;1.30;;;9.50;99.90;;;;;;4409016;28;655814;-65
2022/09/02 04:22:16;;;;;;;2.13;1.27;;;9.50;99.90;;;;;;4389735;28;655661;-65
2022/09/02 04:25:04;;;;;;;4.07;1.40;;;9.60;99.90;;;;;;4406868;28;656418;-64
2022/09/02 04:27:52;;;;;;;3.35;1.60;;;9.60;99.90;;;;;;4391076;28;655485;-65
2022/09/02 04:30:40;;;;;;;9.10;1.40;;;9.70;99.90;;;;;;4406648;28;656442;-66
2022/09/02 04:33:27;;;;;;;4.32;1.45;;;9.70;99.90;;;;;;4416783;28;655188;-65
2022/09/02 04:36:15;;;;;;;4.77;1.20;;;9.80;99.90;;;;;;4406264;28;655673;-65
2022/09/02 04:39:03;;;;;;;2.17;1.33;;;9.90;99.90;;;;;;4384381;28;656773;-65
2022/09/02 04:41:52;;;;;;;3.23;1.60;;;9.90;99.90;;;;;;4400200;28;655549;-66
2022/09/02 04:44:41;;;;;;;3.80;1.30;;;10.00;99.90;;;;;;4411379;28;655878;-64
2022/09/02 04:47:28;;;;;;;2.87;1.33;;;10.10;99.90;;;;;;4383128;28;657723;-65
2022/09/02 04:50:15;;;;;;;2.47;1.33;;;10.20;99.90;;;;;;4391986;28;656908;-67
2022/09/02 04:53:02;;;;;;;2.90;1.50;;;10.40;99.90;;;;;;4412405;28;659253;-65
2022/09/02 04:55:49;;;;;;;3.80;1.50;;;10.50;99.90;;;;;;4407997;28;656484;-65
2022/09/02 04:58:37;;;;;;;2.83;1.50;;;10.60;99.90;;;;;;4384999;28;656848;-66
2022/09/02 05:01:26;;;;;;;4.27;1.53;;;10.70;99.90;;;;;;4409182;28;656519;-65
2022/09/02 05:04:14;;;;;;;4.87;1.50;;;10.80;99.90;;;;;;4383269;28;657309;-65
2022/09/02 05:07:01;;;;;;;3.50;1.70;;;10.90;99.90;;;;;;4388509;28;657085;-65
2022/09/02 05:09:48;;;;;;;4.43;1.50;;;11.00;99.90;;;;;;4409987;28;657623;-65
2022/09/02 05:12:36;;;;;;;4.85;1.60;;;11.20;99.90;;;;;;4390765;28;656723;-67
2022/09/02 05:15:23;;;;;;;3.57;1.53;;;11.30;99.90;;;;;;4409468;28;657567;-66
2022/09/02 05:18:12;;;;;;;3.53;1.50;;;11.40;99.90;;;;;;4385662;28;656840;-65
2022/09/02 05:20:59;;;;;;;2.80;1.57;;;11.50;99.90;;;;;;4408472;28;656578;-65
2022/09/02 05:23:46;;;;;;;3.90;1.60;;;11.60;99.90;;;;;;4389414;28;656511;-65
2022/09/02 05:26:34;;;;;;;3.13;1.57;;;11.70;99.90;;;;;;4406154;28;657816;-66
2022/09/02 05:29:22;;;;;;;3.57;1.70;;;11.80;99.90;;;;;;4389619;28;656430;-66
2022/09/02 05:32:09;;;;;;;5.00;1.90;;;11.90;99.90;;;;;;4409401;28;656176;-65
2022/09/02 05:34:58;;;;;;;2.20;1.50;;;12.00;99.90;;;;;;4389768;28;656601;-65
2022/09/02 05:37:45;;;;;;;6.20;2.13;;;12.10;99.90;;;;;;4387023;28;656864;-66
2022/09/02 05:40:33;;;;;;;4.80;1.60;;;12.20;99.90;;;;;;4410137;28;657457;-65
2022/09/02 05:43:21;;;;;;;3.23;1.60;;;12.30;99.90;;;;;;4392785;28;656737;-67
2022/09/02 05:46:09;;;;;;;3.60;1.77;;;12.40;99.90;;;;;;4409081;28;657383;-66
2022/09/02 05:49:06;;;;;;;4.53;1.90;;;12.60;99.90;;;;;;4388163;28;656917;-66
2022/09/02 05:51:56;;;;;;;4.67;2.00;;;12.70;99.90;;;;;;4389154;28;657022;-65
2022/09/02 05:54:43;;;;;;;4.13;2.07;;;12.70;99.90;;;;;;4387228;28;657695;-65
2022/09/02 05:57:30;;;;;;;4.57;1.90;;;12.80;99.90;;;;;;4400633;28;657191;-67
2022/09/02 06:00:17;;;;;;;4.07;1.90;;;12.90;99.90;;;;;;4413769;28;657106;-66
2022/09/02 06:03:05;;;;;;;5.47;2.60;;;13.00;99.90;;;;;;4409295;28;656815;-67
2022/09/02 06:05:56;;;;;;;4.88;1.90;;;13.20;99.90;;;;;;4412297;28;656716;-65
2022/09/02 06:08:44;;;;;;;5.10;2.20;;;13.20;99.90;;;;;;4387004;28;657397;-65
2022/09/02 06:11:31;;;;;;;5.97;2.27;;;13.40;99.90;;;;;;4387378;28;656430;-67
2022/09/02 06:14:20;;;;;;;5.73;1.83;;;13.50;99.90;;;;;;4404244;28;657140;-67
2022/09/02 06:17:07;;;;;;;3.93;1.97;;;13.50;99.90;;;;;;4390668;28;657399;-65
2022/09/02 06:19:54;;;;;;;5.53;2.00;;;13.70;99.90;;;;;;4409407;28;656658;-65
2022/09/02 06:22:41;;;;;;;3.53;1.80;;;13.80;99.90;;;;;;4390115;28;656631;-66
2022/09/02 06:25:30;;;;;;;8.07;2.00;;;13.90;99.90;;;;;;4410048;28;656806;-66
2022/09/02 06:28:17;;;;;;;2.70;1.93;;;14.00;99.90;;;;;;4385382;28;656544;-65
2022/09/02 06:31:07;;;;;;;3.20;1.80;;;14.10;99.90;;;;;;4406842;28;656770;-65
2022/09/02 06:33:55;;;;;;;6.03;1.90;;;14.30;99.90;;;;;;4385811;28;656484;-66
2022/09/02 06:36:43;;;;;;;4.00;1.80;;;14.50;99.90;;;;;;4390195;28;656879;-65
2022/09/02 06:39:31;;;;;;;2.60;1.63;;;14.50;99.90;;;;;;4386680;28;656364;-66
2022/09/02 06:42:19;;;;;;;3.87;1.63;;;14.70;99.90;;;;;;4409550;28;656699;-65
2022/09/02 06:45:07;;;;;;;4.47;1.63;;;14.80;99.90;;;;;;4384201;28;656566;-65
2022/09/02 06:47:54;;;;;;;3.07;1.60;;;14.90;99.90;;;;;;4409997;28;656846;-65
2022/09/02 06:50:42;;;;;;;5.93;1.63;;;15.10;99.90;;;;;;4387597;28;657621;-66
2022/09/02 06:53:29;;;;;;;4.40;1.60;;;15.20;99.90;;;;;;4408003;28;656939;-66
2022/09/02 06:56:16;;;;;;;3.03;1.40;;;15.40;99.90;;;;;;4388138;28;656294;-65
2022/09/02 06:59:05;;;;;;;7.13;1.53;;;15.60;99.90;;;;;;4404713;28;657711;-66
2022/09/02 07:01:52;;;;;;;3.43;1.30;;;15.70;99.90;;;;;;4382382;28;657288;-66
2022/09/02 07:07:48;;;;;;;3.80;1.27;;;16.00;99.90;;;;;;4380495;28;656625;-68
2022/09/02 07:10:37;;;;;;;8.47;1.37;;;16.20;99.90;;;;;;4389311;28;656921;-68
2022/09/02 07:13:24;;;;;;;2.30;1.20;;;16.30;99.90;;;;;;4406219;28;656211;-65
2022/09/02 07:16:13;;;;;;;9.97;1.30;;;16.30;99.90;;;;;;4388374;28;657305;-66
2022/09/02 07:19:01;;;;;;;5.20;1.30;;;16.50;99.90;;;;;;4390678;28;657155;-68
2022/09/02 07:21:48;;;;;;;2.72;1.30;;;16.80;99.90;;;;;;4408295;28;656878;-66
2022/09/02 07:24:36;;;;;;;1.93;1.17;;;16.90;99.90;;;;;;4388089;28;657137;-65
2022/09/02 07:27:23;;;;;;;2.07;1.17;;;17.10;99.90;;;;;;4411462;28;657147;-65
2022/09/02 07:30:11;;;;;;;2.37;1.00;;;17.10;99.90;;;;;;4395683;28;656593;-68
2022/09/02 07:33:00;;;;;;;4.77;0.93;;;17.20;99.90;;;;;;4409866;28;658330;-66
2022/09/02 07:35:47;;;;;;;2.50;1.00;;;17.40;99.90;;;;;;4389923;28;657643;-67
2022/09/02 07:38:34;;;;;;;1.47;0.80;;;17.50;99.90;;;;;;4408830;28;656631;-66
2022/09/02 07:41:21;;;;;;;2.60;0.80;;;17.80;99.90;;;;;;4388800;28;656407;-66
2022/09/02 07:44:09;;;;;;;2.67;1.03;;;17.90;99.90;;;;;;4409488;28;657744;-66
2022/09/02 07:46:56;;;;;;;1.90;0.90;;;18.10;99.90;;;;;;4389695;28;657281;-65
2022/09/02 07:49:44;;;;;;;3.57;0.70;;;18.30;99.30;;;;;;4412230;28;658498;-65
2022/09/02 07:52:31;;;;;;;3.10;1.00;;;18.30;97.90;;;;;;4385493;28;656990;-65
2022/09/02 07:55:18;;;;;;;2.40;0.80;;;18.60;95.50;;;;;;4401820;28;657778;-66
2022/09/02 07:58:06;;;;;;;2.93;0.90;;;18.80;96.20;;;;;;4383812;28;656940;-65
2022/09/02 08:00:54;;;;;;;1.70;0.90;;;18.90;93.30;;;;;;4407816;28;656738;-65
2022/09/02 08:03:43;;;;;;;2.50;0.77;;;19.10;93.80;;;;;;4389453;28;657572;-66
2022/09/02 08:06:32;;;;;;;5.00;0.90;;;19.20;93.10;;;;;;4388129;28;656257;-66
2022/09/02 08:09:20;;;;;;;4.07;0.77;;;19.20;90.90;;;;;;4404854;28;656228;-68
2022/09/02 08:12:07;;;;;;;4.23;1.00;;;19.20;90.40;;;;;;4385359;28;656925;-65
2022/09/02 08:14:57;;;;;;;1.57;0.80;;;19.40;91.60;;;;;;4407578;28;655806;-66
2022/09/02 08:17:44;;;;;;;1.40;0.82;;;19.40;92.50;;;;;;4385253;28;656767;-66
2022/09/02 08:20:31;;;;;;;2.33;0.80;;;19.80;93.30;;;;;;4383695;28;657089;-66
2022/09/02 08:23:20;;;;;;;5.37;1.00;;;20.20;90.20;;;;;;4404849;28;657171;-66
2022/09/02 08:26:08;;;;;;;1.20;0.80;;;20.20;83.30;;;;;;4385476;28;657834;-66
2022/09/02 08:28:55;;;;;;;1.60;0.67;;;20.20;83.60;;;;;;4389811;28;657912;-66
2022/09/02 08:31:43;;;;;;;2.50;0.77;;;20.50;81.90;;;;;;4407248;28;657696;-66
2022/09/02 08:34:30;;;;;;;0.70;0.70;;;20.80;79.50;;;;;;4399059;28;656884;-68
2022/09/02 08:37:18;;;;;;;1.00;0.80;;;20.60;73.20;;;;;;4404425;28;656096;-66
2022/09/02 08:40:09;;;;;;;3.13;0.70;;;19.70;73.20;;;;;;4396471;28;656288;-68
2022/09/02 08:42:56;;;;;;;3.17;0.60;;;18.60;74.10;;;;;;4388870;28;656356;-66
2022/09/02 08:45:43;;;;;;;2.37;0.60;;;18.20;77.50;;;;;;4410828;28;658182;-65
2022/09/02 08:48:34;;;;;;;0.65;0.55;;;18.50;77.60;;;;;;4387083;28;656492;-67
2022/09/02 08:51:25;;;;;;;1.73;0.50;;;18.20;76.50;;;;;;4386786;28;656807;-65
2022/09/02 08:54:20;;;;;;;2.90;0.93;;;17.80;76.20;;;;;;4386586;28;657022;-66
2022/09/02 08:57:08;;;;;;;2.13;0.77;;;17.70;78.30;;;;;;4357378;28;656952;-65
2022/09/02 08:59:57;;;;;;;2.73;0.73;;;17.80;77.90;;;;;;4386939;28;657600;-66
2022/09/02 09:02:55;;;;;;;2.60;0.60;;;18.30;77.40;;;;;;4407356;28;656509;-66
2022/09/02 09:05:45;;;;;;;0.70;0.50;;;18.60;76.10;;;;;;4387803;28;657472;-66
2022/09/02 09:08:35;;;;;;;3.17;0.63;;;18.60;71.30;;;;;;4382792;28;657045;-65
2022/09/02 09:11:25;;;;;;;3.60;0.57;;;19.10;73.90;;;;;;4382077;28;657665;-66
2022/09/02 09:14:19;;;;;;;1.50;0.67;;;20.10;76.10;;;;;;4379727;28;657286;-66
2022/09/02 09:17:08;;;;;;;5.30;0.70;;;20.00;69.80;;;;;;4365516;28;656640;-66
2022/09/02 09:19:57;;;;;;;1.15;0.60;;;20.60;69.70;;;;;;4389080;28;657132;-67
2022/09/02 09:22:44;;;;;;;1.40;0.60;;;21.30;64.90;;;;;;4410919;28;657090;-66
2022/09/02 09:25:31;;;;;;;1.87;0.47;;;21.90;63.50;;;;;;4387550;28;656463;-66
2022/09/02 09:28:18;;;;;;;2.20;0.70;;;22.50;63.40;;;;;;4408130;28;657228;-67
2022/09/02 09:31:08;;;;;;;3.00;0.70;;;22.90;61.90;;;;;;4388575;28;656667;-67
2022/09/02 09:33:57;;;;;;;1.53;0.90;;;23.00;56.40;;;;;;4391847;28;656981;-66
2022/09/02 09:36:46;;;;;;;2.30;0.67;;;22.50;57.90;;;;;;4410221;28;657848;-66
2022/09/02 09:39:33;;;;;;;2.10;0.60;;;21.60;56.40;;;;;;4347360;28;1090516;-67
2022/09/02 09:42:30;;;;;;;2.93;0.50;;;21.10;61.10;;;;;;4388187;28;657642;-66
2022/09/02 09:45:20;;;;;;;1.53;0.60;;;21.50;62.10;;;;;;4366083;28;657112;-66
2022/09/02 09:48:34;;;;;;;1.83;0.60;;;22.20;61.90;;;;;;4377215;28;656854;-66
2022/09/02 09:51:21;;;;;;;1.07;0.67;;;22.80;56.50;;;;;;4362625;28;657289;-66
2022/09/02 09:54:17;;;;;;;1.10;0.70;;;22.60;55.10;;;;;;4406945;28;657452;-66
2022/09/02 09:57:16;;;;;;;2.20;0.70;;;22.10;54.80;;;;;;4403761;28;656596;-67
2022/09/02 10:00:10;;;;;;;1.73;0.80;;;22.30;57.10;;;;;;4387298;28;657784;-66
2022/09/02 10:02:58;;;;;;;0.93;0.60;;;22.30;55.30;;;;;;4365290;28;657877;-67
2022/09/02 10:05:47;;;;;;;0.90;0.60;;;21.70;53.60;;;;;;4391576;28;656639;-66
2022/09/02 10:08:34;;;;;;;1.83;0.70;;;22.00;56.30;;;;;;4413386;28;656416;-66
2022/09/02 10:11:23;;;;;;;3.43;0.80;;;22.60;54.90;;;;;;4389958;28;656504;-67
2022/09/02 10:14:10;;;;;;;6.37;0.63;;;22.90;53.60;;;;;;4388159;28;656699;-66
2022/09/02 10:17:01;;;;;;;2.47;0.50;;;22.80;54.50;;;;;;4410658;28;658241;-66
2022/09/02 10:19:52;;;;;;;1.07;0.60;;;23.30;53.70;;;;;;4391934;28;657063;-66
2022/09/02 10:22:54;;;;;;;3.58;0.55;;;23.10;52.70;;;;;;4389905;28;657078;-66
2022/09/02 10:25:49;;;;;;;1.60;0.60;;;22.80;55.40;;;;;;4365379;28;657648;-66
2022/09/02 10:28:48;;;;;;;1.33;0.73;;;23.60;58.40;;;;;;4391081;28;656561;-66
2022/09/02 10:31:38;;;;;;;1.97;0.60;;;23.90;52.10;;;;;;4367991;28;657501;-66
2022/09/02 10:34:28;;;;;;;1.47;0.60;;;23.40;52.20;;;;;;4401154;28;656656;-68
2022/09/02 10:37:17;;;;;;;1.10;0.50;;;22.70;50.20;;;;;;4389824;28;657414;-66
2022/09/02 10:40:09;;;;;;;1.57;0.60;;;21.90;50.30;;;;;;4406484;28;656280;-66
2022/09/02 10:43:00;;;;;;;3.37;0.53;;;21.30;53.20;;;;;;4364442;28;657392;-66
2022/09/02 10:45:49;;;;;;;1.00;0.60;;;20.70;53.80;;;;;;4383728;28;657367;-66
2022/09/02 10:48:43;;;;;;;1.10;0.50;;;20.60;54.70;;;;;;4387323;28;656264;-66
2022/09/02 10:51:37;;;;;;;3.03;0.50;;;20.20;53.70;;;;;;4388812;28;656290;-67
2022/09/02 10:54:31;;;;;;;2.47;0.80;;;20.10;55.00;;;;;;4387876;28;656695;-67
2022/09/02 10:57:20;;;;;;;3.43;0.67;;;19.80;54.10;;;;;;4387772;28;656774;-66
2022/09/02 11:00:11;;;;;;;2.20;0.60;;;19.70;54.20;;;;;;4389992;28;657792;-65
2022/09/02 11:03:01;;;;;;;2.83;0.90;;;19.60;54.80;;;;;;4387412;28;657248;-65
2022/09/02 11:05:50;;;;;;;3.37;0.70;;;19.80;55.20;;;;;;4386859;28;656313;-65
2022/09/02 11:08:39;;;;;;;1.30;0.53;;;19.70;56.90;;;;;;4382738;28;657574;-66
2022/09/02 11:11:27;;;;;;;1.90;0.50;;;20.30;57.40;;;;;;4387184;28;656912;-66
2022/09/02 11:14:19;;;;;;;4.60;0.67;;;21.40;54.10;;;;;;4402988;28;656294;-66
2022/09/02 11:17:09;;;;;;;2.53;0.70;;;22.30;50.80;;;;;;4361427;28;657157;-65
2022/09/02 11:19:59;;;;;;;0.60;0.47;;;22.00;50.50;;;;;;4384151;28;657439;-66
2022/09/02 11:22:53;;;;;;;1.43;0.70;;;22.10;52.00;;;;;;4390918;28;657164;-66
2022/09/02 11:25:42;;;;;;;0.67;0.53;;;22.30;50.20;;;;;;4370072;28;656642;-67
2022/09/02 11:28:33;;;;;;;2.00;0.70;;;21.50;51.60;;;;;;4407632;28;656892;-67
2022/09/02 11:31:27;;;;;;;2.83;0.50;;;21.30;53.10;;;;;;4389525;28;656632;-68
2022/09/02 11:34:33;;;;;;;5.13;0.57;;;21.50;49.50;;;;;;4384946;28;656636;-66
2022/09/02 11:37:28;;;;;;;2.03;0.53;;;21.20;52.20;;;;;;4364124;28;656821;-66
2022/09/02 11:40:19;;;;;;;1.27;0.60;;;20.80;51.50;;;;;;4362636;28;656378;-66
2022/09/02 11:43:22;;;;;;;3.00;0.80;;;20.70;51.80;;;;;;4390829;28;656585;-66
2022/09/02 11:46:32;;;;;;;1.53;0.90;;;20.60;52.30;;;;;;4384988;28;656642;-66
2022/09/02 11:49:29;;;;;;;2.17;0.77;;;20.40;52.60;;;;;;4384067;28;657489;-65
2022/09/02 11:52:24;;;;;;;1.30;0.83;;;20.10;54.70;;;;;;4365277;28;656805;-65
2022/09/02 11:55:15;;;;;;;0.60;0.60;;;20.10;55.80;;;;;;4366256;28;656714;-66
2022/09/02 11:58:02;;;;;;;3.77;0.80;;;20.50;53.70;;;;;;4388711;28;658104;-66
2022/09/02 12:01:03;;;;;;;4.97;0.80;;;20.50;55.10;;;;;;4407648;28;656367;-65
2022/09/02 12:03:56;;;;;;;5.27;0.77;;;21.40;53.40;;;;;;4361977;28;657113;-66
2022/09/02 12:07:12;;;;;;;1.13;0.80;;;22.70;55.00;;;;;;4379614;28;656947;-66
2022/09/02 12:10:01;;;;;;;1.80;0.60;;;22.40;50.50;;;;;;4383184;28;656900;-66
2022/09/02 12:13:04;;;;;;;1.17;0.70;;;22.70;50.50;;;;;;4384654;28;657525;-65
2022/09/02 12:16:23;;;;;;;2.00;0.83;;;23.80;51.20;;;;;;4385090;28;656768;-66
2022/09/02 12:19:29;;;;;;;0.80;0.50;;;24.60;49.10;;;;;;4370732;28;656448;-68
2022/09/02 12:22:27;;;;;;;0.50;0.50;;;25.20;45.60;;;;;;4386125;28;656789;-66
2022/09/02 12:25:42;;;;;;;2.22;0.63;;;24.50;45.40;;;;;;4381683;28;656904;-66
2022/09/02 12:28:29;;;;;;;1.67;0.70;;;24.40;46.10;;;;;;4383068;28;656781;-65
2022/09/02 12:31:19;;;;;;;0.75;0.50;;;24.80;47.00;;;;;;4385191;28;657399;-66
2022/09/02 12:34:39;;;;;;;0.50;0.50;;;24.60;44.10;;;;;;4389394;28;657260;-66
2022/09/02 12:37:52;;;;;;;0.70;0.60;;;25.10;42.70;;;;;;4387725;28;656948;-67
2022/09/02 12:40:41;;;;;;;0.73;0.50;;;24.30;44.50;;;;;;4378353;28;657178;-68
2022/09/02 12:43:31;;;;;;;1.83;0.70;;;24.90;42.60;;;;;;4405662;28;657203;-65
2022/09/02 12:46:21;;;;;;;2.67;0.57;;;24.20;43.80;;;;;;4383214;28;656673;-65
2022/09/02 12:49:11;;;;;;;1.65;0.60;;;24.80;43.60;;;;;;4386243;28;657773;-65
2022/09/02 12:52:01;;;;;;;3.97;0.70;;;25.60;44.30;;;;;;4385221;28;658729;-66
2022/09/02 12:54:49;;;;;;;6.47;0.70;;;25.10;40.60;;;;;;4383229;28;657559;-65
2022/09/02 12:57:41;;;;;;;3.45;0.80;;;24.30;42.90;;;;;;4382947;28;656541;-65
2022/09/02 13:00:32;;;;;;;4.10;0.70;;;23.70;42.80;;;;;;4375901;28;657138;-66
2022/09/02 13:03:33;;;;;;;1.35;0.70;;;23.60;43.10;;;;;;4386981;28;657358;-66
2022/09/02 13:06:25;;;;;;;4.72;0.70;;;24.30;44.60;;;;;;4364595;28;656931;-66
2022/09/02 13:09:23;;;;;;;1.10;0.70;;;25.30;43.30;;;;;;4387391;28;657691;-66
2022/09/02 13:12:33;;;;;;;1.45;0.80;;;25.30;42.90;;;;;;4396770;28;656579;-67
2022/09/02 13:15:24;;;;;;;0.80;0.60;;;25.30;44.40;;;;;;4357052;28;656437;-67
2022/09/02 13:18:33;;;;;;;6.75;0.70;;;26.10;39.90;;;;;;4386929;28;656936;-65
2022/09/02 13:21:55;;;;;;;1.30;0.70;;;25.90;41.20;;;;;;4362673;28;656461;-67
2022/09/02 13:25:17;;;;;;;1.10;0.60;;;25.80;41.10;;;;;;4358160;28;657483;-66
2022/09/02 13:28:28;;;;;;;3.00;0.90;;;26.30;41.80;;;;;;4379069;28;656801;-66
2022/09/02 13:31:19;;;;;;;2.45;1.00;;;26.40;39.20;;;;;;4370703;28;656702;-67
2022/09/02 13:34:13;;;;;;;1.73;0.70;;;25.70;40.90;;;;;;4390112;28;656360;-66
2022/09/02 13:37:00;;;;;;;3.70;1.00;;;24.70;42.60;;;;;;4388344;28;656554;-67
2022/09/02 13:39:47;;;;;;;0.93;0.80;;;23.50;45.00;;;;;;4409857;28;656914;-66
2022/09/02 13:42:34;;;;;;;1.52;0.90;;;23.90;43.50;;;;;;4403165;28;656362;-66
2022/09/02 13:45:23;;;;;;;1.88;0.95;;;23.60;45.00;;;;;;4388853;28;657451;-66
2022/09/02 13:48:13;;;;;;;6.03;0.80;;;23.30;44.40;;;;;;4384276;28;656112;-66
2022/09/02 13:51:09;;;;;;;1.90;0.90;;;22.90;45.50;;;;;;4388369;28;656555;-66
2022/09/02 13:53:56;;;;;;;3.00;0.90;;;22.30;44.70;;;;;;4385168;28;657140;-66
2022/09/02 13:56:44;;;;;;;4.70;0.83;;;21.90;46.80;;;;;;4405833;28;656880;-65
2022/09/02 13:59:36;;;;;;;0.80;0.63;;;21.60;48.20;;;;;;4384091;28;656780;-66
2022/09/02 14:02:29;;;;;;;4.90;0.90;;;22.30;49.00;;;;;;4382165;28;656814;-67
2022/09/02 14:05:19;;;;;;;2.07;0.70;;;23.00;46.00;;;;;;4388053;28;656663;-67
2022/09/02 14:08:07;;;;;;;2.30;0.70;;;22.70;46.10;;;;;;4382669;28;657197;-65
2022/09/02 14:10:57;;;;;;;3.93;0.90;;;22.40;44.80;;;;;;4401986;28;656791;-66
2022/09/02 14:13:48;;;;;;;2.67;1.10;;;22.70;45.80;;;;;;4406640;28;657163;-65
2022/09/02 14:16:36;;;;;;;3.30;0.90;;;22.80;46.10;;;;;;4370949;28;656631;-68
2022/09/02 14:19:25;;;;;;;2.17;1.08;;;23.60;44.90;;;;;;4409678;28;656264;-65
2022/09/02 14:22:21;;;;;;;1.57;0.73;;;24.50;42.40;;;;;;4387557;28;657172;-65
2022/09/02 14:25:09;;;;;;;5.53;0.93;;;24.20;43.10;;;;;;4388868;28;657150;-65
2022/09/02 14:27:59;;;;;;;0.87;0.77;;;23.80;43.10;;;;;;4391058;28;656368;-65
2022/09/02 14:30:54;;;;;;;5.03;1.00;;;23.20;45.00;;;;;;4391219;28;657340;-66
2022/09/02 14:33:42;;;;;;;1.20;0.80;;;22.60;45.60;;;;;;4387885;28;656203;-66
2022/09/02 14:36:35;;;;;;;5.17;1.03;;;22.60;46.00;;;;;;4409812;28;657258;-66
2022/09/02 14:39:22;;;;;;;1.80;0.70;;;22.40;47.20;;;;;;4361316;28;657403;-66